Orient Point, New York
Current Conditions -  °F | °C
As of 4:56 AM on Thursday 23 Oct 2014 (Local Time) from KGON Reporting Station
Broken Clouds Broken Clouds  
Wind Chill: 50°   Ceiling: 3000
Heat Index: 50°   Visibility: 10mi
Dew Point: 46°   Wind: 21mph
Humidity: 86%   Direction: 10°N
Pressure: 29.61"   Gusts: 30mph
Location:  41.1442°N, 72.2776°W
Report Text: KGON 230856Z AUTO 01018G26KT 10SM FEW021 BKN030 BKN035 10/08 A2961 RMK AO2 PK WND 01030/0813 RAB06E16 SLP026 P0000 60000 T01000078 55008
Loading
Personal Weather Stations






























Interactive Weather Map
Tropical Storm Tracking
New forecast layout! Learn more

10-Day Weather Forecast

Advertisements
Track Severe Weather on mobile